Time;durP1;ratioP1;P1;durP2;ratioP2;P2;SDS_P1;SDS_P2;PMS_P1;PMS_P2;Temp;Humidity;BMP_temperature;BMP_pressure;BME280_temperature;BME280_humidity;BME280_pressure;Samples;Min_cycle;Max_cycle;Signal;HPM_P1;HPM_P2
2022/04/08 00:00:57;;;;;;;8.60;2.20;;;7.40;99.90;;;;;;5002862;28;20482;-79
2022/04/08 00:03:24;;;;;;;5.30;1.80;;;7.30;99.90;;;;;;5015302;28;20545;-80
2022/04/08 00:05:52;;;;;;;4.93;1.47;;;7.10;99.90;;;;;;5016887;28;20456;-80
2022/04/08 00:08:20;;;;;;;8.57;2.17;;;7.10;99.90;;;;;;5008586;28;20854;-80
2022/04/08 00:10:47;;;;;;;7.13;2.03;;;7.10;99.90;;;;;;5016218;28;20476;-80
2022/04/08 00:13:14;;;;;;;5.07;3.10;;;7.00;99.90;;;;;;4998055;28;20489;-79
2022/04/08 00:15:41;;;;;;;5.77;2.80;;;6.90;99.90;;;;;;4996557;28;20508;-80
2022/04/08 00:18:09;;;;;;;14.80;4.67;;;6.90;99.90;;;;;;5002744;28;20457;-79
2022/04/08 00:20:36;;;;;;;7.67;3.13;;;7.00;99.90;;;;;;4996120;28;20479;-79
2022/04/08 00:23:05;;;;;;;8.70;3.00;;;7.00;99.90;;;;;;5009418;28;20460;-79
2022/04/08 00:25:33;;;;;;;11.17;3.00;;;7.00;99.90;;;;;;5016452;28;20452;-80
2022/04/08 00:27:59;;;;;;;9.17;3.60;;;7.00;99.90;;;;;;5016395;28;20972;-78
2022/04/08 00:30:26;;;;;;;10.10;2.90;;;6.90;99.90;;;;;;5016320;28;21031;-79
2022/04/08 00:32:53;;;;;;;12.60;2.80;;;6.90;99.90;;;;;;5002948;28;20486;-79
2022/04/08 00:35:20;;;;;;;4.83;1.90;;;7.00;99.90;;;;;;5014962;28;20548;-80
2022/04/08 00:37:47;;;;;;;8.83;3.03;;;7.00;99.90;;;;;;4996717;28;20555;-80
2022/04/08 00:40:14;;;;;;;7.83;2.63;;;7.00;99.90;;;;;;4998755;28;20556;-79
2022/04/08 00:42:43;;;;;;;5.63;2.43;;;7.10;99.90;;;;;;5019052;28;20513;-78
2022/04/08 00:45:10;;;;;;;10.40;2.40;;;7.00;99.90;;;;;;5011603;28;20858;-80
2022/04/08 00:47:40;;;;;;;8.53;1.50;;;6.90;99.90;;;;;;5020212;28;20464;-78
2022/04/08 00:50:08;;;;;;;6.33;1.43;;;6.80;99.90;;;;;;5002822;28;20484;-78
2022/04/08 00:52:36;;;;;;;8.13;1.80;;;6.80;99.90;;;;;;5000756;28;20506;-78
2022/04/08 00:55:04;;;;;;;2.60;1.40;;;6.80;99.90;;;;;;5013148;28;20468;-78
2022/04/08 00:57:32;;;;;;;7.53;2.07;;;6.70;99.90;;;;;;5018878;28;20468;-77
2022/04/08 01:00:01;;;;;;;6.83;1.77;;;6.70;99.90;;;;;;5002714;28;20484;-79
2022/04/08 01:02:29;;;;;;;6.30;2.30;;;6.70;99.90;;;;;;5002661;28;20452;-80
2022/04/08 01:04:56;;;;;;;5.97;1.50;;;6.70;99.90;;;;;;5014985;28;20451;-79
2022/04/08 01:07:24;;;;;;;4.10;1.43;;;6.70;99.90;;;;;;5012878;28;20452;-80
2022/04/08 01:09:52;;;;;;;6.53;2.07;;;6.80;99.90;;;;;;4999112;28;20596;-79
2022/04/08 01:12:19;;;;;;;5.53;1.30;;;6.80;99.90;;;;;;5003434;28;20457;-80
2022/04/08 01:14:46;;;;;;;7.33;2.10;;;6.80;99.90;;;;;;5017980;28;20454;-79
2022/04/08 01:17:14;;;;;;;8.23;1.87;;;6.80;99.90;;;;;;5015366;28;20456;-79
2022/04/08 01:19:41;;;;;;;6.83;1.40;;;6.90;99.90;;;;;;4999707;28;20474;-79
2022/04/08 01:22:08;;;;;;;6.77;1.97;;;6.80;99.90;;;;;;5000927;28;20452;-79
2022/04/08 01:24:38;;;;;;;17.53;1.80;;;6.70;99.90;;;;;;5018293;28;20449;-81
2022/04/08 01:27:06;;;;;;;6.43;1.37;;;6.70;99.90;;;;;;5017241;28;20531;-79
2022/04/08 01:29:33;;;;;;;8.83;1.83;;;6.70;99.90;;;;;;5005984;28;20876;-79
2022/04/08 01:32:00;;;;;;;8.27;1.93;;;6.70;99.90;;;;;;4998791;28;20457;-79
2022/04/08 01:34:26;;;;;;;7.37;2.00;;;6.80;99.90;;;;;;5000124;28;20568;-79
2022/04/08 01:36:53;;;;;;;15.00;2.77;;;6.90;99.90;;;;;;5018576;28;20456;-79
2022/04/08 01:39:20;;;;;;;8.00;2.53;;;7.00;99.90;;;;;;5000553;28;20484;-79
2022/04/08 01:41:47;;;;;;;7.53;2.30;;;7.00;99.90;;;;;;5024124;28;20464;-80
2022/04/08 01:44:15;;;;;;;11.07;3.00;;;7.00;99.90;;;;;;5016569;28;20449;-78
2022/04/08 01:46:41;;;;;;;9.20;2.40;;;7.00;99.90;;;;;;5017563;28;20459;-79
2022/04/08 01:49:08;;;;;;;8.17;2.83;;;7.00;99.90;;;;;;4998354;28;20490;-79
2022/04/08 01:51:35;;;;;;;10.10;3.03;;;6.90;99.90;;;;;;4998416;28;21100;-78
2022/04/08 01:54:02;;;;;;;7.20;3.20;;;6.90;99.90;;;;;;5002174;28;20485;-79
2022/04/08 01:56:28;;;;;;;5.60;1.90;;;6.80;99.90;;;;;;4998040;28;20458;-81
2022/04/08 01:58:55;;;;;;;11.70;2.13;;;6.70;99.90;;;;;;5014671;28;20467;-79
2022/04/08 02:01:23;;;;;;;10.30;2.23;;;6.70;99.90;;;;;;5017956;28;20461;-79
2022/04/08 02:03:50;;;;;;;8.67;2.10;;;6.60;99.90;;;;;;5001171;28;20456;-78
2022/04/08 02:06:17;;;;;;;6.20;1.77;;;6.50;99.90;;;;;;4999230;28;20507;-79
2022/04/08 02:08:44;;;;;;;3.90;1.70;;;6.50;99.90;;;;;;4997256;28;20460;-79
2022/04/08 02:11:11;;;;;;;7.87;1.53;;;6.40;99.90;;;;;;5001679;28;20464;-79
2022/04/08 02:13:37;;;;;;;7.93;1.50;;;6.30;99.90;;;;;;5017082;28;20530;-79
2022/04/08 02:16:05;;;;;;;10.00;1.63;;;6.30;99.90;;;;;;5005002;28;20453;-79
2022/04/08 02:18:33;;;;;;;5.80;2.83;;;6.30;99.90;;;;;;4996144;28;20550;-79
2022/04/08 02:21:00;;;;;;;3.50;1.17;;;6.20;99.90;;;;;;5003939;28;20854;-79
2022/04/08 02:23:27;;;;;;;4.97;1.60;;;6.20;99.90;;;;;;4997103;28;20455;-79
2022/04/08 02:25:55;;;;;;;5.30;1.40;;;6.10;99.90;;;;;;5006818;28;20462;-79
2022/04/08 02:28:22;;;;;;;5.47;1.80;;;6.00;99.90;;;;;;5017171;28;20446;-79
2022/04/08 02:30:52;;;;;;;4.83;1.90;;;6.00;99.90;;;;;;5009512;28;20484;-78
2022/04/08 02:33:19;;;;;;;7.53;2.93;;;6.00;99.90;;;;;;5015953;28;20526;-79
2022/04/08 02:35:47;;;;;;;10.83;2.00;;;6.00;99.90;;;;;;5015961;28;20473;-79
2022/04/08 02:38:14;;;;;;;7.30;2.40;;;6.00;99.90;;;;;;5016761;28;20460;-78
2022/04/08 02:40:41;;;;;;;10.37;2.43;;;6.10;99.90;;;;;;5007534;28;20480;-80
2022/04/08 02:43:08;;;;;;;6.33;1.67;;;6.20;99.90;;;;;;5015685;28;20449;-79
2022/04/08 02:45:34;;;;;;;7.97;2.03;;;6.20;99.90;;;;;;5009631;28;20460;-79
2022/04/08 02:48:01;;;;;;;9.20;1.53;;;6.20;99.90;;;;;;4998772;28;20448;-79
2022/04/08 02:50:28;;;;;;;8.63;1.80;;;6.20;99.90;;;;;;5017350;28;20480;-79
2022/04/08 02:52:56;;;;;;;8.37;2.20;;;6.10;99.90;;;;;;5016380;28;20822;-78
2022/04/08 02:55:23;;;;;;;7.30;2.10;;;6.10;99.90;;;;;;4995586;28;20503;-79
2022/04/08 02:57:50;;;;;;;7.00;2.67;;;6.10;99.90;;;;;;4996778;28;20449;-79
2022/04/08 03:00:19;;;;;;;14.87;2.17;;;6.20;99.90;;;;;;5015096;28;20492;-80
2022/04/08 03:02:46;;;;;;;7.43;1.90;;;6.20;99.90;;;;;;5017393;28;20456;-81
2022/04/08 03:05:13;;;;;;;8.63;2.33;;;6.20;99.90;;;;;;4997969;28;20473;-79
2022/04/08 03:07:40;;;;;;;9.53;2.03;;;6.30;99.90;;;;;;5000599;28;20836;-79
2022/04/08 03:10:10;;;;;;;14.13;2.80;;;6.30;99.90;;;;;;5015912;28;20481;-79
2022/04/08 03:12:37;;;;;;;12.70;3.73;;;6.40;99.90;;;;;;5012056;28;21252;-80
2022/04/08 03:15:05;;;;;;;10.73;2.83;;;6.40;99.90;;;;;;4995110;28;20485;-79
2022/04/08 03:17:32;;;;;;;17.83;2.90;;;6.30;99.90;;;;;;4997590;28;20540;-80
2022/04/08 03:19:59;;;;;;;9.57;2.20;;;6.40;99.90;;;;;;4999184;28;20482;-77
2022/04/08 03:22:26;;;;;;;9.70;2.57;;;6.40;99.90;;;;;;4996035;28;20455;-79
2022/04/08 03:24:54;;;;;;;9.00;2.13;;;6.40;99.90;;;;;;5015036;28;20539;-80
2022/04/08 03:27:22;;;;;;;11.53;2.10;;;6.50;99.90;;;;;;5016597;28;20453;-80
2022/04/08 03:29:49;;;;;;;7.73;2.73;;;6.60;99.90;;;;;;5002871;28;20487;-80
2022/04/08 03:32:16;;;;;;;10.23;2.30;;;6.60;99.90;;;;;;5016268;28;20452;-79
2022/04/08 03:34:43;;;;;;;11.20;3.40;;;6.60;99.90;;;;;;5014818;28;20495;-79
2022/04/08 03:37:10;;;;;;;9.27;2.70;;;6.50;99.90;;;;;;5016502;28;20459;-78
2022/04/08 03:39:37;;;;;;;7.83;2.83;;;6.50;99.90;;;;;;4999437;28;20487;-79
2022/04/08 03:42:06;;;;;;;14.57;2.90;;;6.50;99.90;;;;;;4997039;28;20468;-79
2022/04/08 03:44:34;;;;;;;12.60;3.07;;;6.40;99.90;;;;;;4994721;28;20961;-79
2022/04/08 03:47:00;;;;;;;9.50;2.70;;;6.40;99.90;;;;;;5009410;28;20468;-79
2022/04/08 03:49:27;;;;;;;11.20;3.53;;;6.50;99.90;;;;;;5000033;28;20473;-79
2022/04/08 03:51:55;;;;;;;7.83;3.03;;;6.50;99.90;;;;;;5008017;28;20464;-78
2022/04/08 03:54:21;;;;;;;11.50;3.60;;;6.40;99.90;;;;;;5015462;28;20497;-79
2022/04/08 03:56:48;;;;;;;11.03;4.50;;;6.30;99.90;;;;;;5003886;28;20458;-78
2022/04/08 03:59:16;;;;;;;4.40;2.20;;;6.20;99.90;;;;;;5000352;28;20476;-78
2022/04/08 04:01:44;;;;;;;9.53;2.57;;;6.10;99.90;;;;;;4996237;28;20460;-79
2022/04/08 04:04:11;;;;;;;12.13;2.97;;;6.10;99.90;;;;;;5001728;28;20462;-78
2022/04/08 04:06:38;;;;;;;12.70;3.77;;;6.00;99.90;;;;;;5015295;28;20971;-78
2022/04/08 04:09:04;;;;;;;8.00;3.07;;;5.90;99.90;;;;;;5010655;28;20501;-81
2022/04/08 04:11:32;;;;;;;10.80;2.47;;;5.90;99.90;;;;;;4993902;28;20462;-82
2022/04/08 04:13:59;;;;;;;16.70;3.30;;;6.00;99.90;;;;;;4998613;28;20480;-79
2022/04/08 04:16:26;;;;;;;9.53;2.70;;;6.10;99.90;;;;;;5016221;28;20828;-80
2022/04/08 04:18:55;;;;;;;13.00;3.43;;;6.10;99.90;;;;;;4997998;28;20457;-80
2022/04/08 04:21:22;;;;;;;9.30;3.40;;;6.10;99.90;;;;;;4995521;28;20899;-78
2022/04/08 04:23:49;;;;;;;7.63;2.20;;;6.20;99.90;;;;;;5017912;28;20465;-78
2022/04/08 04:26:16;;;;;;;8.32;2.58;;;6.30;99.90;;;;;;5020499;28;20470;-79
2022/04/08 04:28:43;;;;;;;111.50;39.47;;;6.20;99.90;;;;;;5006030;28;20210;-79
2022/04/08 04:31:09;;;;;;;7.17;3.00;;;6.40;99.90;;;;;;5014557;28;20459;-78
2022/04/08 04:33:36;;;;;;;6.40;2.13;;;6.30;99.90;;;;;;5021063;28;20453;-80
2022/04/08 04:36:04;;;;;;;11.37;2.70;;;6.30;99.90;;;;;;5001974;28;20775;-79
2022/04/08 04:38:31;;;;;;;6.50;2.40;;;6.20;99.90;;;;;;4998463;28;20945;-80
2022/04/08 04:40:58;;;;;;;8.70;2.80;;;6.10;99.90;;;;;;5014990;28;20951;-80
2022/04/08 04:43:25;;;;;;;9.57;2.83;;;6.00;99.90;;;;;;5018681;28;20553;-79
2022/04/08 04:45:51;;;;;;;12.07;2.60;;;6.00;99.90;;;;;;5001579;28;20453;-80
2022/04/08 04:48:18;;;;;;;6.70;2.37;;;6.00;99.90;;;;;;4999462;28;20552;-80
2022/04/08 04:50:46;;;;;;;5.20;2.33;;;6.00;99.90;;;;;;5002387;28;20482;-81
2022/04/08 04:53:15;;;;;;;6.40;2.60;;;6.00;99.90;;;;;;5000417;28;20483;-79
2022/04/08 04:55:41;;;;;;;8.70;2.47;;;6.00;99.90;;;;;;5015942;28;20495;-81
2022/04/08 04:58:08;;;;;;;5.60;2.30;;;6.00;99.90;;;;;;5020774;28;21015;-80
2022/04/08 05:00:35;;;;;;;6.63;1.90;;;5.90;99.90;;;;;;5019986;28;20481;-78
2022/04/08 05:03:02;;;;;;;11.53;2.10;;;5.90;99.90;;;;;;5021542;28;20456;-80
2022/04/08 05:05:28;;;;;;;4.07;1.70;;;5.90;99.90;;;;;;5020162;28;20452;-80
2022/04/08 05:07:55;;;;;;;6.60;1.80;;;6.00;99.90;;;;;;5013629;28;20460;-80
2022/04/08 05:10:23;;;;;;;6.30;2.60;;;6.00;99.90;;;;;;5014843;28;20636;-80
2022/04/08 05:12:50;;;;;;;8.50;2.73;;;6.00;99.90;;;;;;5018779;28;20463;-80
2022/04/08 05:15:17;;;;;;;8.77;2.57;;;5.90;99.90;;;;;;5018977;28;20498;-80
2022/04/08 05:17:45;;;;;;;7.50;3.13;;;5.90;99.90;;;;;;5020097;28;20458;-80
2022/04/08 05:20:12;;;;;;;7.60;3.00;;;5.90;99.90;;;;;;5016826;28;20472;-80
2022/04/08 05:22:41;;;;;;;12.03;2.63;;;5.90;99.90;;;;;;4998597;28;20457;-80
2022/04/08 05:25:08;;;;;;;11.50;2.63;;;5.90;99.90;;;;;;4999105;28;20463;-81
2022/04/08 05:27:41;;;;;;;13.03;2.70;;;5.90;99.90;;;;;;5000469;28;20464;-80
2022/04/08 05:30:10;;;;;;;9.97;3.43;;;5.80;99.90;;;;;;4999582;28;20488;-80
2022/04/08 05:32:36;;;;;;;7.90;2.70;;;5.80;99.90;;;;;;5000053;28;20448;-80
2022/04/08 05:35:04;;;;;;;11.30;3.73;;;5.80;99.90;;;;;;4999292;28;20831;-80
2022/04/08 05:37:31;;;;;;;8.43;2.27;;;5.90;99.90;;;;;;5000173;28;20494;-80
2022/04/08 05:39:58;;;;;;;4.83;2.70;;;5.90;99.90;;;;;;4999885;28;20471;-80
2022/04/08 05:42:24;;;;;;;6.97;2.80;;;5.90;99.90;;;;;;5004214;28;20516;-80
2022/04/08 05:44:53;;;;;;;8.07;2.80;;;5.90;99.90;;;;;;5013724;28;20484;-80
2022/04/08 05:47:19;;;;;;;8.00;2.67;;;5.80;99.90;;;;;;5002649;28;20453;-81
2022/04/08 05:49:46;;;;;;;13.17;4.00;;;5.80;99.90;;;;;;5010952;28;20482;-81
2022/04/08 05:52:16;;;;;;;11.50;3.30;;;5.70;99.90;;;;;;5011736;28;20460;-80
2022/04/08 05:54:43;;;;;;;10.37;3.50;;;5.70;99.90;;;;;;5009049;28;20576;-80
2022/04/08 05:57:09;;;;;;;11.03;5.00;;;5.70;99.90;;;;;;5006482;28;20452;-81
2022/04/08 05:59:37;;;;;;;11.63;4.57;;;5.70;99.90;;;;;;5006945;28;20986;-80
2022/04/08 06:02:07;;;;;;;13.80;4.50;;;5.80;99.90;;;;;;5007685;28;20486;-80
2022/04/08 06:04:34;;;;;;;11.93;3.80;;;5.80;99.90;;;;;;5006079;28;20549;-81
2022/04/08 06:07:00;;;;;;;13.77;4.50;;;5.90;99.90;;;;;;5021575;28;20977;-80
2022/04/08 06:09:28;;;;;;;21.30;5.47;;;6.00;99.90;;;;;;5017021;28;20883;-80
2022/04/08 06:11:54;;;;;;;11.80;5.00;;;6.00;99.90;;;;;;5023548;28;20817;-80
2022/04/08 06:14:21;;;;;;;13.90;5.47;;;6.10;99.90;;;;;;5021906;28;20573;-79
2022/04/08 06:16:48;;;;;;;10.73;4.70;;;6.10;99.90;;;;;;5023309;28;20447;-80
2022/04/08 06:19:16;;;;;;;10.23;5.23;;;6.10;99.90;;;;;;5027386;28;20470;-80
2022/04/08 06:21:43;;;;;;;9.57;5.13;;;6.10;99.90;;;;;;5017159;28;20546;-80
2022/04/08 06:24:10;;;;;;;10.40;4.20;;;6.20;99.90;;;;;;5010774;28;20457;-82
2022/04/08 06:26:38;;;;;;;8.27;3.90;;;6.30;99.90;;;;;;5015033;28;20456;-80
2022/04/08 06:29:05;;;;;;;11.70;4.00;;;6.30;99.90;;;;;;5013113;28;20558;-80
2022/04/08 06:31:32;;;;;;;7.73;4.53;;;6.40;99.90;;;;;;5006916;28;20449;-80
2022/04/08 06:34:00;;;;;;;11.53;4.60;;;6.40;99.90;;;;;;5005254;28;20452;-81
2022/04/08 06:36:29;;;;;;;6.10;3.57;;;6.50;99.90;;;;;;5006187;28;20479;-81
2022/04/08 06:38:56;;;;;;;11.40;3.57;;;6.50;99.90;;;;;;5014751;28;20464;-81
2022/04/08 06:41:23;;;;;;;14.40;4.53;;;6.60;99.90;;;;;;5012475;28;20456;-80
2022/04/08 06:43:49;;;;;;;11.27;4.70;;;6.70;99.90;;;;;;5012789;28;20646;-81
2022/04/08 06:46:16;;;;;;;6.70;3.20;;;6.90;99.90;;;;;;4999719;28;20821;-80
2022/04/08 06:48:43;;;;;;;8.77;3.60;;;7.00;99.90;;;;;;5007356;28;20466;-80
2022/04/08 06:51:10;;;;;;;15.07;4.33;;;7.10;99.90;;;;;;5021774;28;20460;-80
2022/04/08 06:53:38;;;;;;;11.47;3.70;;;7.20;99.90;;;;;;5020909;28;20480;-80
2022/04/08 06:56:05;;;;;;;6.97;3.70;;;7.40;99.90;;;;;;5014886;28;20503;-82
2022/04/08 06:58:38;;;;;;;7.27;3.97;;;7.50;99.90;;;;;;5019992;28;20470;-80
2022/04/08 07:01:06;;;;;;;7.40;4.07;;;7.50;99.90;;;;;;5020872;28;20771;-81
2022/04/08 07:03:33;;;;;;;8.27;3.23;;;7.50;99.90;;;;;;5022508;28;20815;-80
2022/04/08 07:05:59;;;;;;;8.60;4.33;;;7.60;99.90;;;;;;5020508;28;20449;-81
2022/04/08 07:08:26;;;;;;;8.00;3.77;;;7.90;99.90;;;;;;5008862;28;20821;-83
2022/04/08 07:11:03;;;;;;;7.17;3.63;;;8.00;99.90;;;;;;5013569;28;21033;-81
2022/04/08 07:13:30;;;;;;;11.93;4.10;;;8.20;99.90;;;;;;5004696;28;20456;-81
2022/04/08 07:15:57;;;;;;;15.60;4.47;;;8.30;99.90;;;;;;5012743;28;21112;-81
2022/04/08 07:18:24;;;;;;;11.43;4.27;;;8.30;99.90;;;;;;5020204;28;20455;-81
2022/04/08 07:20:50;;;;;;;11.47;4.70;;;8.40;99.90;;;;;;5021953;28;20478;-82
2022/04/08 07:23:17;;;;;;;10.53;6.10;;;8.70;99.90;;;;;;5016634;28;20488;-80
2022/04/08 07:25:44;;;;;;;12.37;6.07;;;8.60;99.90;;;;;;5015625;28;20536;-81
2022/04/08 07:28:12;;;;;;;6.43;5.00;;;8.80;99.90;;;;;;5014076;28;20536;-81
2022/04/08 07:30:39;;;;;;;9.90;6.40;;;9.20;99.90;;;;;;5018293;28;20566;-81
2022/04/08 07:33:06;;;;;;;12.23;6.60;;;9.40;99.90;;;;;;5012419;28;20454;-80
2022/04/08 07:35:34;;;;;;;11.47;6.30;;;9.60;99.90;;;;;;5011559;28;20505;-81
2022/04/08 07:38:03;;;;;;;8.00;6.03;;;9.60;99.90;;;;;;5003954;28;20514;-81
2022/04/08 07:40:30;;;;;;;8.77;5.37;;;9.60;99.90;;;;;;5019096;28;21004;-81
2022/04/08 07:42:57;;;;;;;9.60;5.67;;;9.40;99.90;;;;;;5023785;28;20460;-81
2022/04/08 07:45:29;;;;;;;8.70;6.30;;;9.30;99.90;;;;;;5025932;28;20466;-80
2022/04/08 07:47:58;;;;;;;14.63;6.10;;;9.40;99.90;;;;;;5026246;28;20529;-80
2022/04/08 07:50:26;;;;;;;6.13;5.20;;;9.40;99.90;;;;;;5026062;28;20477;-80
2022/04/08 07:52:53;;;;;;;9.00;5.27;;;9.60;99.90;;;;;;5013538;28;20553;-80
2022/04/08 07:55:23;;;;;;;9.23;5.67;;;9.80;99.90;;;;;;5014674;28;20485;-80
2022/04/08 07:57:51;;;;;;;11.27;5.60;;;10.00;99.90;;;;;;5017488;28;20465;-79
2022/04/08 08:00:20;;;;;;;10.50;5.47;;;10.00;99.90;;;;;;5016162;28;20475;-79
2022/04/08 08:02:49;;;;;;;10.80;4.80;;;10.40;99.90;;;;;;5010105;28;20505;-79
2022/04/08 08:05:16;;;;;;;11.53;5.30;;;10.50;99.90;;;;;;5014338;28;20462;-79
2022/04/08 08:07:48;;;;;;;12.13;4.93;;;10.60;99.90;;;;;;5017332;28;20453;-79
2022/04/08 08:10:16;;;;;;;7.07;5.20;;;10.70;99.90;;;;;;5013172;28;20469;-79
2022/04/08 08:12:43;;;;;;;9.30;5.10;;;10.80;99.90;;;;;;5016628;28;20473;-78
2022/04/08 08:15:11;;;;;;;8.07;5.20;;;10.80;99.90;;;;;;5014109;28;20479;-79
2022/04/08 08:17:38;;;;;;;7.33;4.90;;;10.70;99.90;;;;;;5031190;28;20538;-79
2022/04/08 08:20:08;;;;;;;7.70;5.03;;;10.90;99.90;;;;;;5024224;28;20464;-79
2022/04/08 08:22:35;;;;;;;6.40;4.50;;;10.70;99.90;;;;;;5029761;28;20550;-79
2022/04/08 08:25:02;;;;;;;5.70;5.07;;;10.90;99.90;;;;;;5023465;28;20530;-79
2022/04/08 08:27:29;;;;;;;10.13;5.10;;;10.80;99.90;;;;;;5019574;28;20975;-79
2022/04/08 08:29:55;;;;;;;8.10;4.50;;;10.80;99.90;;;;;;5006167;28;20850;-79
2022/04/08 08:32:22;;;;;;;6.60;4.67;;;10.90;99.90;;;;;;5019388;28;20445;-79
2022/04/08 08:34:49;;;;;;;6.00;4.60;;;11.20;99.90;;;;;;5003731;28;20467;-79
2022/04/08 08:37:17;;;;;;;7.23;4.07;;;10.90;99.90;;;;;;4999989;28;20449;-79
2022/04/08 08:39:44;;;;;;;6.40;4.10;;;11.00;99.90;;;;;;5013522;28;20488;-79
2022/04/08 08:42:11;;;;;;;7.37;3.67;;;10.90;99.90;;;;;;5000699;28;20567;-79
2022/04/08 08:44:39;;;;;;;8.87;3.60;;;11.00;99.90;;;;;;5012427;28;20520;-78
2022/04/08 08:47:09;;;;;;;6.50;3.67;;;10.80;99.90;;;;;;5017504;28;20459;-78
2022/04/08 08:49:38;;;;;;;6.97;4.17;;;11.00;99.90;;;;;;4998293;28;21023;-78
2022/04/08 08:52:09;;;;;;;5.77;3.03;;;10.90;99.90;;;;;;4998209;28;20451;-79
2022/04/08 08:54:37;;;;;;;7.13;3.00;;;11.00;99.90;;;;;;4997732;28;20437;-78
2022/04/08 08:57:04;;;;;;;4.70;2.93;;;10.80;99.90;;;;;;4998130;28;20498;-78
2022/04/08 08:59:31;;;;;;;6.50;2.63;;;11.20;99.90;;;;;;5018125;28;20471;-78
2022/04/08 09:02:02;;;;;;;9.17;4.50;;;11.30;99.90;;;;;;5018062;28;20518;-78
2022/04/08 09:04:28;;;;;;;9.50;3.20;;;11.30;99.90;;;;;;4997471;28;20464;-78
2022/04/08 09:06:56;;;;;;;4.53;3.00;;;11.30;99.90;;;;;;4997944;28;20474;-78
2022/04/08 09:09:30;;;;;;;10.13;3.10;;;11.30;99.90;;;;;;5014543;28;20551;-78
2022/04/08 09:11:58;;;;;;;8.10;3.53;;;11.30;99.90;;;;;;5017819;28;20439;-79
2022/04/08 09:14:30;;;;;;;9.40;3.43;;;10.90;99.90;;;;;;5008169;28;20601;-78
2022/04/08 09:17:02;;;;;;;4.90;3.77;;;11.00;99.90;;;;;;5030522;28;20521;-78
2022/04/08 09:19:33;;;;;;;8.60;4.07;;;11.20;99.90;;;;;;5017678;28;20517;-78
2022/04/08 09:22:01;;;;;;;6.87;4.90;;;11.10;99.90;;;;;;5017914;28;20437;-79
2022/04/08 09:24:28;;;;;;;9.03;4.03;;;10.90;99.90;;;;;;5020596;28;20988;-79
2022/04/08 09:26:55;;;;;;;3.43;1.80;;;11.00;99.90;;;;;;5035099;28;20868;-78
2022/04/08 09:29:27;;;;;;;3.77;2.30;;;11.00;99.90;;;;;;5028273;28;20493;-78
2022/04/08 09:31:57;;;;;;;4.73;2.80;;;11.20;99.90;;;;;;5026614;28;20460;-79
2022/04/08 09:34:24;;;;;;;6.60;3.40;;;11.20;99.90;;;;;;5028521;28;20451;-79
2022/04/08 09:36:51;;;;;;;5.07;3.57;;;11.20;99.90;;;;;;5017069;28;20493;-78
2022/04/08 09:39:18;;;;;;;8.13;4.20;;;11.50;99.90;;;;;;5024824;28;20564;-77
2022/04/08 09:41:48;;;;;;;8.37;4.07;;;11.90;99.90;;;;;;5021975;28;20460;-80
2022/04/08 09:44:24;;;;;;;6.40;3.63;;;11.90;99.90;;;;;;5022361;28;20461;-79
2022/04/08 09:46:53;;;;;;;7.03;4.20;;;11.80;99.90;;;;;;5034165;28;20513;-79
2022/04/08 09:49:19;;;;;;;7.17;3.23;;;11.90;99.90;;;;;;5026079;28;20486;-78
2022/04/08 09:51:50;;;;;;;5.70;2.80;;;12.10;99.90;;;;;;5037803;28;20537;-78
2022/04/08 09:54:21;;;;;;;8.50;3.60;;;12.20;99.90;;;;;;5024845;28;20456;-78
2022/04/08 09:56:48;;;;;;;4.07;3.00;;;12.40;99.90;;;;;;5020312;28;20533;-79
2022/04/08 09:59:16;;;;;;;8.00;3.27;;;12.20;99.90;;;;;;5026405;28;20570;-78
2022/04/08 10:01:45;;;;;;;4.83;2.60;;;12.30;99.90;;;;;;5017174;28;20463;-79
2022/04/08 10:04:13;;;;;;;7.97;3.30;;;12.30;99.90;;;;;;5004296;28;20484;-80
2022/04/08 10:06:41;;;;;;;9.00;2.80;;;12.10;99.90;;;;;;4996148;28;20763;-80
2022/04/08 10:09:10;;;;;;;4.90;2.80;;;12.00;99.90;;;;;;5006968;28;20841;-79
2022/04/08 10:11:46;;;;;;;4.63;1.80;;;11.70;99.90;;;;;;5005060;28;20468;-80
2022/04/08 10:14:26;;;;;;;13.00;2.70;;;12.00;99.90;;;;;;5004187;28;20937;-79
2022/04/08 10:16:57;;;;;;;6.20;2.53;;;12.00;99.90;;;;;;5004324;28;20489;-82
2022/04/08 10:19:25;;;;;;;6.03;2.60;;;12.10;99.90;;;;;;5009171;28;20472;-80
2022/04/08 10:21:53;;;;;;;4.93;2.37;;;12.00;99.90;;;;;;5014747;28;20840;-81
2022/04/08 10:24:24;;;;;;;5.87;2.63;;;11.70;99.90;;;;;;5014259;28;20479;-80
2022/04/08 10:27:05;;;;;;;3.30;2.10;;;12.10;99.90;;;;;;5002163;28;21343;-80
2022/04/08 10:29:33;;;;;;;4.93;2.40;;;11.90;99.90;;;;;;5030099;28;20480;-81
2022/04/08 10:32:02;;;;;;;4.30;2.63;;;11.90;99.90;;;;;;5011952;28;20471;-81
2022/04/08 10:34:32;;;;;;;5.20;2.20;;;12.10;99.90;;;;;;5005202;28;20455;-81
2022/04/08 10:37:00;;;;;;;5.30;2.23;;;12.00;99.90;;;;;;4997014;28;20474;-81
2022/04/08 10:39:27;;;;;;;4.63;2.40;;;12.10;99.90;;;;;;5024657;28;20473;-80
2022/04/08 10:41:56;;;;;;;4.40;2.10;;;12.30;99.90;;;;;;5006594;28;20455;-81
2022/04/08 10:44:34;;;;;;;3.40;1.97;;;12.10;99.90;;;;;;5007129;28;20464;-81
2022/04/08 10:47:03;;;;;;;3.97;1.70;;;12.10;99.90;;;;;;5006870;28;20524;-80
2022/04/08 10:49:33;;;;;;;6.27;1.90;;;12.00;99.90;;;;;;5002783;28;20479;-80
2022/04/08 10:51:59;;;;;;;2.87;1.63;;;11.70;99.90;;;;;;5005414;28;20461;-81
2022/04/08 10:54:36;;;;;;;4.53;1.77;;;11.60;99.90;;;;;;5000881;28;20460;-79
2022/04/08 10:57:03;;;;;;;5.60;1.90;;;11.60;99.90;;;;;;5015964;28;20483;-79
2022/04/08 10:59:30;;;;;;;6.80;2.07;;;11.60;99.90;;;;;;5008097;28;20484;-80
2022/04/08 11:02:02;;;;;;;5.90;1.90;;;11.80;99.90;;;;;;4996914;28;20456;-80
2022/04/08 11:04:30;;;;;;;4.87;1.70;;;11.70;99.90;;;;;;4995181;28;20466;-81
2022/04/08 11:07:04;;;;;;;6.23;1.80;;;11.80;99.90;;;;;;4995363;28;20479;-82
2022/04/08 11:09:32;;;;;;;3.40;1.67;;;12.00;99.90;;;;;;4997708;28;20534;-80
2022/04/08 11:11:59;;;;;;;7.50;1.50;;;11.70;99.90;;;;;;5015807;28;20894;-80
2022/04/08 11:14:28;;;;;;;6.50;1.37;;;11.50;99.90;;;;;;5011155;28;20473;-80
2022/04/08 11:16:55;;;;;;;4.53;1.40;;;11.60;99.90;;;;;;5005424;28;20489;-79
2022/04/08 11:19:23;;;;;;;7.20;1.40;;;11.70;99.90;;;;;;5005337;28;20481;-78
2022/04/08 11:21:51;;;;;;;3.00;1.00;;;11.80;99.90;;;;;;5006748;28;20542;-78
2022/04/08 11:24:19;;;;;;;2.67;1.40;;;11.90;99.90;;;;;;5012036;28;20463;-80
2022/04/08 11:26:48;;;;;;;2.30;1.00;;;12.10;99.90;;;;;;5014276;28;20536;-80
2022/04/08 11:29:16;;;;;;;5.00;0.80;;;12.10;99.90;;;;;;5014377;28;20476;-80
2022/04/08 11:31:44;;;;;;;3.00;1.23;;;12.20;99.30;;;;;;5015637;28;21132;-80
2022/04/08 11:34:13;;;;;;;3.33;1.50;;;12.20;99.90;;;;;;5013770;28;20824;-81
2022/04/08 11:36:40;;;;;;;3.40;0.97;;;12.00;99.30;;;;;;5016304;28;20498;-80
2022/04/08 11:39:08;;;;;;;1.93;0.93;;;12.30;99.90;;;;;;5002554;28;20564;-80
2022/04/08 11:41:38;;;;;;;3.37;0.90;;;12.30;98.10;;;;;;4996188;28;20463;-80
2022/04/08 11:44:07;;;;;;;5.10;1.23;;;12.30;98.30;;;;;;5006968;28;20461;-80
2022/04/08 11:46:34;;;;;;;3.07;1.23;;;12.60;99.90;;;;;;5010516;28;20457;-78
2022/04/08 11:49:05;;;;;;;3.50;1.40;;;12.50;98.80;;;;;;5002636;28;20476;-79
2022/04/08 11:51:31;;;;;;;2.60;1.63;;;12.40;99.00;;;;;;5010066;28;20503;-80
2022/04/08 11:54:03;;;;;;;3.77;1.77;;;12.50;99.90;;;;;;5017075;28;20452;-79
2022/04/08 11:56:30;;;;;;;4.20;1.63;;;12.50;99.60;;;;;;5005864;28;20487;-79
2022/04/08 11:59:00;;;;;;;3.40;1.40;;;12.80;99.90;;;;;;5013768;28;20441;-79
2022/04/08 12:01:30;;;;;;;4.03;1.63;;;12.90;99.90;;;;;;5004680;28;20450;-78
2022/04/08 12:04:01;;;;;;;5.43;1.93;;;12.90;99.90;;;;;;4997096;28;20454;-79
2022/04/08 12:06:35;;;;;;;5.73;1.60;;;12.70;99.80;;;;;;5003787;28;20487;-80
2022/04/08 12:09:03;;;;;;;6.13;3.13;;;12.70;99.90;;;;;;5015460;28;20479;-81
2022/04/08 12:11:31;;;;;;;3.87;1.87;;;12.30;99.00;;;;;;5006206;28;20451;-82
2022/04/08 12:13:59;;;;;;;4.97;2.00;;;11.90;99.90;;;;;;5005439;28;20454;-80
2022/04/08 12:16:30;;;;;;;5.97;2.23;;;12.10;99.90;;;;;;5012247;28;20482;-81
2022/04/08 12:18:56;;;;;;;4.10;2.13;;;12.20;99.90;;;;;;5021053;28;20454;-78
2022/04/08 12:21:25;;;;;;;4.60;1.60;;;12.10;99.90;;;;;;5015493;28;20451;-79
2022/04/08 12:23:53;;;;;;;5.63;1.60;;;11.50;99.70;;;;;;5014231;28;20452;-79
2022/04/08 12:26:20;;;;;;;4.03;2.07;;;11.70;99.90;;;;;;5014867;28;20459;-81
2022/04/08 12:28:47;;;;;;;4.77;2.57;;;11.90;99.90;;;;;;5012297;28;20938;-80
2022/04/08 12:31:17;;;;;;;4.50;1.60;;;11.80;99.90;;;;;;5014958;28;20457;-80
2022/04/08 12:33:44;;;;;;;3.50;1.60;;;12.20;99.90;;;;;;5014343;28;20492;-78
2022/04/08 12:36:12;;;;;;;8.50;1.73;;;12.30;99.90;;;;;;5010790;28;20457;-79
2022/04/08 12:38:40;;;;;;;3.70;1.60;;;12.30;98.80;;;;;;5014847;28;20461;-80
2022/04/08 12:41:08;;;;;;;3.70;1.50;;;12.30;99.90;;;;;;5015213;28;20460;-80
2022/04/08 12:43:35;;;;;;;6.70;2.00;;;12.20;99.90;;;;;;5006071;28;20904;-82
2022/04/08 12:46:02;;;;;;;3.80;1.97;;;11.80;99.90;;;;;;5011597;28;20950;-81
2022/04/08 12:48:31;;;;;;;3.37;1.73;;;11.80;99.90;;;;;;5009825;28;20828;-79
2022/04/08 12:50:58;;;;;;;5.27;2.30;;;11.70;99.90;;;;;;5011357;28;20529;-80
2022/04/08 12:53:28;;;;;;;3.30;1.40;;;11.80;99.20;;;;;;5006798;28;20458;-80